createdAt,value
2022-12-18T00:02:12.479Z,37.40
2022-12-18T00:04:39.039Z,45.13
2022-12-18T00:07:05.367Z,45.72
2022-12-18T00:09:39.689Z,39.58
2022-12-18T00:14:45.191Z,47.30
2022-12-18T00:17:11.553Z,46.13
2022-12-18T00:19:37.846Z,46.55
2022-12-18T00:22:04.310Z,47.17
2022-12-18T00:24:30.670Z,52.13
2022-12-18T00:26:58.382Z,53.57
2022-12-18T00:29:24.802Z,50.95
2022-12-18T00:31:51.192Z,50.33
2022-12-18T00:34:17.529Z,46.33
2022-12-18T00:36:43.838Z,48.88
2022-12-18T00:39:12.975Z,46.20
2022-12-18T00:41:58.234Z,49.08
2022-12-18T00:44:24.560Z,40.97
2022-12-18T00:46:50.950Z,45.38
2022-12-18T00:49:19.861Z,48.30
2022-12-18T00:51:47.020Z,57.07
2022-12-18T00:54:13.723Z,42.90
2022-12-18T00:56:48.387Z,44.85
2022-12-18T00:59:15.795Z,46.80
2022-12-18T01:01:42.306Z,41.63
2022-12-18T01:04:09.037Z,42.53
2022-12-18T01:06:35.468Z,47.88
2022-12-18T01:09:03.081Z,50.45
2022-12-18T01:11:29.431Z,45.60
2022-12-18T01:13:56.309Z,51.85
2022-12-18T01:16:23.662Z,47.60
2022-12-18T01:18:53.995Z,44.03
2022-12-18T01:21:21.167Z,43.28
2022-12-18T01:23:48.031Z,43.67
2022-12-18T01:26:17.955Z,42.80
2022-12-18T01:28:44.977Z,45.10
2022-12-18T01:31:15.723Z,49.78
2022-12-18T01:33:42.806Z,44.60
2022-12-18T01:36:14.993Z,48.78
2022-12-18T01:38:41.303Z,40.55
2022-12-18T01:41:07.985Z,41.13
2022-12-18T01:43:56.117Z,45.40
2022-12-18T01:46:26.012Z,45.22
2022-12-18T01:48:57.485Z,35.92
2022-12-18T01:51:25.056Z,42.78
2022-12-18T01:53:51.426Z,39.50
2022-12-18T01:56:19.675Z,45.25
2022-12-18T01:59:00.730Z,45.45
2022-12-18T02:01:28.091Z,48.72
2022-12-18T02:03:54.487Z,45.20
2022-12-18T02:06:33.083Z,47.73
2022-12-18T02:09:07.579Z,40.58
2022-12-18T02:11:43.782Z,50.00
2022-12-18T02:14:19.586Z,43.92
2022-12-18T02:16:54.924Z,41.40
2022-12-18T02:19:42.959Z,49.50
2022-12-18T02:22:12.263Z,41.08
2022-12-18T02:25:29.664Z,41.78
2022-12-18T02:28:00.274Z,40.90
2022-12-18T02:30:29.943Z,42.03
2022-12-18T02:32:58.233Z,47.83
2022-12-18T02:35:28.395Z,48.28
2022-12-18T02:37:55.481Z,47.42
2022-12-18T02:40:24.943Z,40.05
2022-12-18T02:42:51.502Z,43.13
2022-12-18T02:45:17.903Z,39.77
2022-12-18T02:47:48.322Z,38.05
2022-12-18T02:50:26.171Z,41.67
2022-12-18T02:53:11.019Z,42.03
2022-12-18T02:55:52.556Z,41.42
2022-12-18T02:58:35.329Z,45.57
2022-12-18T03:01:11.196Z,40.50
2022-12-18T03:03:58.458Z,40.88
2022-12-18T03:06:29.830Z,39.25
2022-12-18T03:09:08.247Z,41.80
2022-12-18T03:12:00.048Z,37.33
2022-12-18T03:14:31.994Z,38.92
2022-12-18T03:17:03.458Z,40.85
2022-12-18T03:19:34.012Z,35.55
2022-12-18T03:22:04.528Z,40.92
2022-12-18T03:24:32.540Z,38.70
2022-12-18T03:27:03.351Z,32.85
2022-12-18T03:29:36.777Z,36.85
2022-12-18T03:32:08.582Z,37.50
2022-12-18T03:34:37.944Z,35.80
2022-12-18T03:37:05.551Z,34.37
2022-12-18T03:39:32.013Z,35.05
2022-12-18T03:42:19.895Z,36.10
2022-12-18T03:44:54.519Z,31.45
2022-12-18T03:47:30.466Z,42.22
2022-12-18T03:50:18.914Z,30.87
2022-12-18T03:52:53.715Z,32.85
2022-12-18T03:55:21.843Z,35.08
2022-12-18T03:57:51.513Z,35.17
2022-12-18T04:00:19.650Z,35.05
2022-12-18T04:02:50.982Z,29.57
2022-12-18T04:05:19.221Z,31.10
2022-12-18T04:07:48.669Z,36.72
2022-12-18T04:10:16.683Z,28.48
2022-12-18T04:12:43.524Z,29.98
2022-12-18T04:15:11.880Z,31.87
2022-12-18T04:17:39.983Z,31.35
2022-12-18T04:20:07.012Z,26.55
2022-12-18T04:22:33.463Z,26.30
2022-12-18T04:25:01.491Z,21.85
2022-12-18T04:27:27.914Z,27.33
2022-12-18T04:29:55.479Z,28.98
2022-12-18T04:32:22.933Z,29.42
2022-12-18T04:34:49.425Z,26.48
2022-12-18T04:37:16.071Z,24.17
2022-12-18T04:39:42.473Z,28.37
2022-12-18T04:42:08.778Z,20.30
2022-12-18T04:44:35.215Z,22.27
2022-12-18T04:47:01.507Z,24.13
2022-12-18T04:49:27.991Z,24.40
2022-12-18T04:51:54.558Z,28.63
2022-12-18T04:54:21.563Z,26.38
2022-12-18T04:56:47.871Z,24.80
2022-12-18T04:59:14.514Z,25.42
2022-12-18T05:01:41.020Z,20.60
2022-12-18T05:04:07.684Z,21.77
2022-12-18T05:06:34.088Z,25.45
2022-12-18T05:09:00.453Z,21.33
2022-12-18T05:11:26.892Z,17.48
2022-12-18T05:13:55.111Z,23.33
2022-12-18T05:16:21.496Z,21.87
2022-12-18T05:18:48.019Z,14.77
2022-12-18T05:21:14.462Z,23.88
2022-12-18T05:23:41.345Z,23.52
2022-12-18T05:26:08.679Z,23.15
2022-12-18T05:28:36.691Z,17.03
2022-12-18T05:31:04.831Z,21.35
2022-12-18T05:33:33.405Z,18.25
2022-12-18T05:36:06.053Z,16.98
2022-12-18T05:38:34.395Z,16.50
2022-12-18T05:41:00.830Z,15.23
2022-12-18T05:43:28.713Z,20.25
2022-12-18T05:45:57.013Z,14.70
2022-12-18T05:48:25.215Z,20.33
2022-12-18T05:50:53.290Z,15.35
2022-12-18T05:53:22.293Z,21.90
2022-12-18T05:55:48.731Z,17.63
2022-12-18T05:58:17.179Z,18.45
2022-12-18T06:00:47.197Z,16.13
2022-12-18T06:03:36.322Z,18.15
2022-12-18T06:06:05.067Z,16.10
2022-12-18T06:08:31.678Z,18.40
2022-12-18T06:10:58.251Z,21.88
2022-12-18T06:13:24.572Z,16.13
2022-12-18T06:15:50.905Z,16.13
2022-12-18T06:18:17.263Z,13.90
2022-12-18T06:20:44.714Z,17.10
2022-12-18T06:23:12.732Z,18.45
2022-12-18T06:25:40.951Z,14.43
2022-12-18T06:28:08.463Z,13.65
2022-12-18T06:30:34.953Z,15.27
2022-12-18T06:33:01.347Z,20.98
2022-12-18T06:35:27.635Z,18.35
2022-12-18T06:37:53.966Z,21.02
2022-12-18T06:40:20.281Z,17.67
2022-12-18T06:42:46.590Z,19.83
2022-12-18T06:45:15.851Z,19.67
2022-12-18T06:47:42.263Z,16.05
2022-12-18T06:50:08.779Z,19.00
2022-12-18T06:52:35.170Z,19.13
2022-12-18T06:55:01.807Z,14.63
2022-12-18T06:57:28.247Z,14.73
2022-12-18T06:59:54.626Z,16.17
2022-12-18T07:02:21.054Z,18.75
2022-12-18T07:04:47.466Z,17.13
2022-12-18T07:07:13.797Z,13.53
2022-12-18T07:09:41.811Z,15.32
2022-12-18T07:12:08.895Z,23.45
2022-12-18T07:14:35.248Z,14.02
2022-12-18T07:17:02.567Z,16.58
2022-12-18T07:19:29.867Z,18.53
2022-12-18T07:21:57.235Z,15.15
2022-12-18T07:24:23.591Z,16.05
2022-12-18T07:26:49.883Z,18.20
2022-12-18T07:29:16.461Z,17.63
2022-12-18T07:31:43.158Z,14.47
2022-12-18T07:34:14.535Z,16.73
2022-12-18T07:36:41.307Z,14.32
2022-12-18T07:39:07.863Z,18.27
2022-12-18T07:41:34.632Z,17.15
2022-12-18T07:44:02.990Z,16.07
2022-12-18T07:46:29.354Z,20.88
2022-12-18T07:48:55.660Z,19.33
2022-12-18T07:51:21.983Z,16.20
2022-12-18T07:53:49.763Z,15.00
2022-12-18T07:56:27.140Z,16.03
2022-12-18T07:58:55.566Z,12.10
2022-12-18T08:01:22.093Z,12.27
2022-12-18T08:03:48.506Z,16.35
2022-12-18T08:06:16.244Z,14.27
2022-12-18T08:08:43.120Z,15.00
2022-12-18T08:11:09.430Z,13.88
2022-12-18T08:13:35.935Z,18.17
2022-12-18T08:16:05.099Z,14.70
2022-12-18T08:18:33.749Z,12.98
2022-12-18T08:21:12.211Z,13.63
2022-12-18T08:23:42.608Z,18.27
2022-12-18T08:26:11.900Z,13.65
2022-12-18T08:28:38.614Z,16.50
2022-12-18T08:31:05.208Z,14.65
2022-12-18T08:33:32.283Z,14.77
2022-12-18T08:36:02.337Z,13.98
2022-12-18T08:38:28.672Z,14.38
2022-12-18T08:41:06.688Z,13.85
2022-12-18T08:43:51.762Z,14.75
2022-12-18T08:46:19.224Z,13.17
2022-12-18T08:48:46.360Z,18.55
2022-12-18T08:51:12.935Z,16.02
2022-12-18T08:53:39.957Z,15.77
2022-12-18T08:56:06.841Z,16.27
2022-12-18T08:58:33.174Z,18.13
2022-12-18T09:01:05.072Z,16.42
2022-12-18T09:03:31.720Z,22.30
2022-12-18T09:05:58.096Z,22.65
2022-12-18T09:08:24.444Z,20.25
2022-12-18T09:10:52.486Z,12.77
2022-12-18T09:13:19.417Z,14.15
2022-12-18T09:15:49.220Z,17.75
2022-12-18T09:18:17.489Z,19.55
2022-12-18T09:20:44.155Z,18.33
2022-12-18T09:23:10.827Z,17.37
2022-12-18T09:25:37.844Z,15.45
2022-12-18T09:28:11.246Z,17.20
2022-12-18T09:30:42.809Z,20.15
2022-12-18T09:33:10.291Z,15.50
2022-12-18T09:35:40.830Z,14.97
2022-12-18T09:38:09.561Z,13.88
2022-12-18T09:40:40.733Z,19.20
2022-12-18T09:43:08.466Z,14.10
2022-12-18T09:45:50.660Z,14.88
2022-12-18T09:48:24.498Z,12.47
2022-12-18T09:50:52.655Z,18.55
2022-12-18T09:53:25.916Z,16.00
2022-12-18T09:55:54.027Z,15.30
2022-12-18T09:58:32.519Z,13.40
2022-12-18T10:00:58.876Z,12.83
2022-12-18T10:03:25.316Z,13.80
2022-12-18T10:06:11.976Z,14.43
2022-12-18T10:08:50.011Z,15.80
2022-12-18T10:11:41.025Z,15.00
2022-12-18T10:14:15.279Z,14.07
2022-12-18T10:16:59.577Z,13.88
2022-12-18T10:19:40.675Z,12.38
2022-12-18T10:22:20.123Z,17.27
2022-12-18T10:25:04.963Z,13.10
2022-12-18T10:27:32.024Z,13.40
2022-12-18T10:30:01.249Z,10.90
2022-12-18T10:32:30.159Z,13.65
2022-12-18T10:35:00.704Z,14.02
2022-12-18T10:37:29.909Z,12.75
2022-12-18T10:40:18.287Z,13.10
2022-12-18T10:43:03.603Z,12.48
2022-12-18T10:45:30.156Z,16.60
2022-12-18T10:47:56.646Z,15.48
2022-12-18T10:51:09.638Z,13.73
2022-12-18T10:53:27.555Z,12.37
2022-12-18T10:55:57.045Z,13.88
2022-12-18T10:58:38.858Z,15.20
2022-12-18T11:01:14.805Z,14.65
2022-12-18T11:03:42.506Z,18.42
2022-12-18T11:06:12.149Z,11.97
2022-12-18T11:08:39.183Z,16.00
2022-12-18T11:11:21.143Z,11.88
2022-12-18T11:14:04.718Z,13.15
2022-12-18T11:16:37.232Z,11.23
2022-12-18T11:19:37.309Z,12.00
2022-12-18T11:22:21.096Z,10.25
2022-12-18T11:25:30.856Z,16.58
2022-12-18T11:28:30.233Z,14.07
2022-12-18T11:31:21.669Z,12.32
2022-12-18T11:34:19.604Z,16.93
2022-12-18T11:36:43.210Z,12.73
2022-12-18T11:39:24.032Z,10.65
2022-12-18T11:42:11.544Z,12.75
2022-12-18T11:44:52.396Z,14.43
2022-12-18T11:47:34.982Z,12.37
2022-12-18T11:50:03.451Z,13.00
2022-12-18T11:52:39.025Z,11.48
2022-12-18T11:55:11.308Z,13.55
2022-12-18T11:57:46.353Z,11.85
2022-12-18T12:00:22.113Z,12.73
2022-12-18T12:03:07.204Z,13.23
2022-12-18T12:05:36.508Z,12.68
2022-12-18T12:08:18.260Z,13.77
2022-12-18T12:11:07.524Z,14.15
2022-12-18T12:13:40.239Z,11.50
2022-12-18T12:16:30.047Z,14.38
2022-12-18T12:19:23.262Z,12.57
2022-12-18T12:22:01.451Z,14.43
2022-12-18T12:24:56.875Z,10.43
2022-12-18T12:27:35.201Z,11.80
2022-12-18T12:30:10.345Z,15.88
2022-12-18T12:32:46.617Z,12.60
2022-12-18T12:35:43.110Z,12.57
2022-12-18T12:38:15.698Z,10.73
2022-12-18T12:40:55.205Z,11.70
2022-12-18T12:43:40.357Z,13.95
2022-12-18T12:46:12.190Z,13.23
2022-12-18T12:48:50.044Z,13.95
2022-12-18T12:51:23.208Z,14.30
2022-12-18T12:53:50.931Z,14.17
2022-12-18T12:56:20.217Z,10.98
2022-12-18T12:58:56.407Z,11.02
2022-12-18T13:01:26.848Z,12.70
2022-12-18T13:04:12.214Z,9.80
2022-12-18T13:07:05.371Z,14.20
2022-12-18T13:09:36.793Z,14.05
2022-12-18T13:12:35.172Z,14.50
2022-12-18T13:15:41.827Z,11.68
2022-12-18T13:18:11.170Z,14.13
2022-12-18T13:20:47.900Z,13.33
2022-12-18T13:23:25.161Z,16.10
2022-12-18T13:26:11.245Z,14.45
2022-12-18T13:28:46.872Z,13.65
2022-12-18T13:31:14.272Z,16.88
2022-12-18T13:34:16.949Z,15.33
2022-12-18T13:36:34.590Z,14.40
2022-12-18T13:39:26.555Z,16.63
2022-12-18T13:42:31.377Z,14.02
2022-12-18T13:44:58.783Z,13.43
2022-12-18T13:47:38.300Z,13.03
2022-12-18T13:50:29.739Z,11.13
2022-12-18T13:53:00.351Z,14.32
2022-12-18T13:55:26.688Z,15.40
2022-12-18T13:58:05.376Z,16.05
2022-12-18T14:00:32.640Z,15.30
2022-12-18T14:03:00.455Z,14.90
2022-12-18T14:05:37.121Z,13.38
2022-12-18T14:08:09.291Z,15.68
2022-12-18T14:10:49.337Z,12.27
2022-12-18T14:13:32.982Z,14.67
2022-12-18T14:16:04.247Z,16.95
2022-12-18T14:18:34.799Z,14.55
2022-12-18T14:21:04.659Z,13.85
2022-12-18T14:23:35.595Z,13.60
2022-12-18T14:26:06.282Z,16.43
2022-12-18T14:28:33.078Z,12.52
2022-12-18T14:30:59.521Z,14.15
2022-12-18T14:33:28.286Z,18.13
2022-12-18T14:36:01.611Z,15.30
2022-12-18T14:38:38.527Z,14.07
2022-12-18T14:41:12.796Z,16.02
2022-12-18T14:43:43.737Z,13.07
2022-12-18T14:46:39.777Z,15.35
2022-12-18T14:49:30.150Z,14.57
2022-12-18T14:52:02.254Z,12.70
2022-12-18T14:54:30.835Z,15.88
2022-12-18T14:57:18.069Z,14.60
2022-12-18T14:59:44.451Z,15.55
2022-12-18T15:02:28.890Z,16.13
2022-12-18T15:05:02.662Z,14.50
2022-12-18T15:07:41.823Z,12.43
2022-12-18T15:10:08.050Z,15.10
2022-12-18T15:12:37.059Z,15.55
2022-12-18T15:15:05.621Z,14.25
2022-12-18T15:17:32.298Z,20.30
2022-12-18T15:20:10.032Z,16.88
2022-12-18T15:22:37.240Z,15.38
2022-12-18T15:25:24.767Z,14.50
2022-12-18T15:27:56.030Z,18.42
2022-12-18T15:30:24.706Z,14.83
2022-12-18T15:32:52.502Z,17.42
2022-12-18T15:35:21.875Z,13.95
2022-12-18T15:37:48.800Z,15.65
2022-12-18T15:40:23.959Z,14.80
2022-12-18T15:43:13.381Z,15.40
2022-12-18T15:45:39.824Z,19.42
2022-12-18T15:48:21.231Z,18.55
2022-12-18T15:50:49.928Z,15.23
2022-12-18T15:53:16.254Z,20.92
2022-12-18T15:56:01.564Z,14.83
2022-12-18T15:58:27.943Z,15.77
2022-12-18T16:00:56.606Z,19.38
2022-12-18T16:03:22.965Z,16.95
2022-12-18T16:05:49.857Z,18.55
2022-12-18T16:08:16.176Z,15.73
2022-12-18T16:10:42.507Z,18.23
2022-12-18T16:13:16.424Z,20.80
2022-12-18T16:15:45.751Z,19.77
2022-12-18T16:18:12.097Z,17.23
2022-12-18T16:20:39.421Z,19.60
2022-12-18T16:23:05.764Z,17.05
2022-12-18T16:25:32.150Z,14.77
2022-12-18T16:27:58.516Z,20.88
2022-12-18T16:30:32.716Z,18.95
2022-12-18T16:33:05.247Z,16.13
2022-12-18T16:35:31.606Z,18.60
2022-12-18T16:37:57.926Z,16.23
2022-12-18T16:40:24.214Z,18.42
2022-12-18T16:42:50.570Z,19.13
2022-12-18T16:45:18.256Z,22.83
2022-12-18T16:47:45.007Z,15.32
2022-12-18T16:50:12.233Z,19.92
2022-12-18T16:52:39.059Z,17.27
2022-12-18T16:55:06.164Z,20.40
2022-12-18T16:57:32.978Z,17.20
2022-12-18T17:00:04.651Z,17.63
2022-12-18T17:02:32.300Z,17.08
2022-12-18T17:04:59.386Z,17.13
2022-12-18T17:07:26.698Z,21.77
2022-12-18T17:09:53.992Z,18.90
2022-12-18T17:12:21.015Z,22.67
2022-12-18T17:14:47.442Z,19.20
2022-12-18T17:17:22.802Z,20.77
2022-12-18T17:19:50.294Z,17.73
2022-12-18T17:22:16.608Z,16.43
2022-12-18T17:24:42.920Z,20.92
2022-12-18T17:27:09.311Z,19.50
2022-12-18T17:29:36.014Z,20.30
2022-12-18T17:32:02.355Z,19.17
2022-12-18T17:34:29.025Z,18.93
2022-12-18T17:36:56.543Z,18.42
2022-12-18T17:39:22.853Z,20.58
2022-12-18T17:41:49.865Z,21.63
2022-12-18T17:44:17.050Z,19.02
2022-12-18T17:46:45.894Z,21.07
2022-12-18T17:49:12.387Z,23.92
2022-12-18T17:51:39.472Z,19.58
2022-12-18T17:54:05.953Z,17.98
2022-12-18T17:56:32.820Z,21.55
2022-12-18T17:58:59.253Z,25.00
2022-12-18T18:01:26.290Z,21.52
2022-12-18T18:03:55.857Z,19.13
2022-12-18T18:06:23.303Z,21.02
2022-12-18T18:08:49.986Z,17.65
2022-12-18T18:11:51.275Z,25.67
2022-12-18T18:14:20.243Z,21.58
2022-12-18T18:16:51.919Z,21.63
2022-12-18T18:19:21.992Z,22.70
2022-12-18T18:21:52.064Z,22.70
2022-12-18T18:24:23.186Z,23.33
2022-12-18T18:26:49.922Z,22.60
2022-12-18T18:29:22.057Z,19.20
2022-12-18T18:31:48.793Z,19.65
2022-12-18T18:34:17.819Z,23.45
2022-12-18T18:36:46.039Z,18.63
2022-12-18T18:39:13.464Z,22.92
2022-12-18T18:41:39.759Z,24.63
2022-12-18T18:44:06.878Z,27.75
2022-12-18T18:46:33.427Z,20.58
2022-12-18T18:48:59.745Z,22.77
2022-12-18T18:51:31.467Z,24.13
2022-12-18T18:54:00.994Z,24.73
2022-12-18T18:59:13.803Z,19.58
2022-12-18T19:01:40.337Z,20.90
2022-12-18T19:04:06.816Z,18.83
2022-12-18T19:06:33.378Z,25.67
2022-12-18T19:09:02.289Z,21.95
2022-12-18T19:11:47.237Z,14.98
2022-12-18T19:14:15.116Z,18.63
2022-12-18T19:16:43.084Z,24.85
2022-12-18T19:19:09.768Z,18.45
2022-12-18T19:21:38.056Z,24.77
2022-12-18T19:24:05.536Z,21.60
2022-12-18T19:26:32.077Z,22.17
2022-12-18T19:29:03.334Z,23.20
2022-12-18T19:31:35.141Z,22.50
2022-12-18T19:34:03.759Z,22.08
2022-12-18T19:36:31.111Z,19.90
2022-12-18T19:38:59.460Z,25.97
2022-12-18T19:41:28.260Z,19.65
2022-12-18T19:43:57.383Z,20.15
2022-12-18T19:46:23.999Z,23.20
2022-12-18T19:48:51.111Z,20.63
2022-12-18T19:51:21.317Z,17.83
2022-12-18T19:53:49.293Z,21.13
2022-12-18T19:56:20.054Z,25.52
2022-12-18T19:58:47.058Z,22.42
2022-12-18T20:01:16.668Z,20.35
2022-12-18T20:03:44.829Z,24.70
2022-12-18T20:06:26.224Z,21.83
2022-12-18T20:08:57.986Z,21.33
2022-12-18T20:11:26.700Z,21.55
2022-12-18T20:13:53.008Z,23.98
2022-12-18T20:16:19.390Z,25.00
2022-12-18T20:18:45.722Z,23.67
2022-12-18T20:21:14.017Z,23.35
2022-12-18T20:23:41.368Z,23.17
2022-12-18T20:26:08.693Z,22.42
2022-12-18T20:28:35.201Z,22.17
2022-12-18T20:31:03.990Z,22.60
2022-12-18T20:33:30.875Z,24.80
2022-12-18T20:36:02.447Z,25.50
2022-12-18T20:38:30.574Z,28.52
2022-12-18T20:40:59.304Z,26.50
2022-12-18T20:43:25.620Z,20.58
2022-12-18T20:45:59.747Z,27.83
2022-12-18T20:48:27.127Z,23.60
2022-12-18T20:51:08.156Z,27.95
2022-12-18T20:53:35.375Z,23.50
2022-12-18T20:56:08.308Z,27.60
2022-12-18T20:58:35.641Z,26.17
2022-12-18T21:01:13.161Z,26.92
2022-12-18T21:03:41.036Z,24.88
2022-12-18T21:06:08.604Z,22.77
2022-12-18T21:08:34.947Z,24.40
2022-12-18T21:11:38.346Z,19.60
2022-12-18T21:14:09.086Z,25.50
2022-12-18T21:16:35.817Z,26.48
2022-12-18T21:19:02.253Z,20.67
2022-12-18T21:21:28.900Z,26.23
2022-12-18T21:23:55.271Z,23.35
2022-12-18T21:26:24.367Z,27.83
2022-12-18T21:28:56.298Z,24.30
2022-12-18T21:31:24.955Z,22.57
2022-12-18T21:33:52.007Z,26.05
2022-12-18T21:36:26.163Z,24.30
2022-12-18T21:38:57.124Z,23.73
2022-12-18T21:41:43.050Z,25.75
2022-12-18T21:44:14.056Z,20.77
2022-12-18T21:46:48.950Z,23.33
2022-12-18T21:49:21.292Z,31.40
2022-12-18T21:51:49.426Z,23.27
2022-12-18T21:54:16.406Z,29.02
2022-12-18T21:56:56.277Z,26.30
2022-12-18T21:59:25.485Z,21.98
2022-12-18T22:01:52.990Z,31.00
2022-12-18T22:04:20.506Z,24.52
2022-12-18T22:06:48.202Z,25.27
2022-12-18T22:09:20.066Z,26.73
2022-12-18T22:11:47.273Z,28.95
2022-12-18T22:14:14.868Z,26.02
2022-12-18T22:16:41.916Z,25.85
2022-12-18T22:19:10.018Z,25.33
2022-12-18T22:21:39.623Z,25.57
2022-12-18T22:24:10.008Z,27.02
2022-12-18T22:26:40.200Z,26.85
2022-12-18T22:29:26.676Z,27.25
2022-12-18T22:31:53.008Z,26.15
2022-12-18T22:34:22.838Z,27.33
2022-12-18T22:36:49.827Z,23.33
2022-12-18T22:39:21.734Z,25.63
2022-12-18T22:41:48.411Z,29.02
2022-12-18T22:44:15.208Z,26.45
2022-12-18T22:46:47.733Z,26.30
2022-12-18T22:49:21.831Z,25.50
2022-12-18T22:51:48.849Z,29.67
2022-12-18T22:54:15.773Z,31.33
2022-12-18T22:56:42.866Z,31.55
2022-12-18T22:59:16.758Z,26.10
2022-12-18T23:01:44.010Z,25.65
2022-12-18T23:04:13.103Z,28.63
2022-12-18T23:06:40.578Z,28.55
2022-12-18T23:09:07.722Z,26.65
2022-12-18T23:11:34.035Z,29.53
2022-12-18T23:14:00.566Z,27.38
2022-12-18T23:16:28.006Z,27.70
2022-12-18T23:18:55.390Z,29.55
2022-12-18T23:21:23.163Z,24.33
2022-12-18T23:23:50.893Z,28.73
2022-12-18T23:26:20.204Z,29.98
2022-12-18T23:28:47.093Z,28.38
2022-12-18T23:31:14.870Z,28.20
2022-12-18T23:33:43.491Z,28.23
2022-12-18T23:36:11.936Z,28.53
2022-12-18T23:38:39.537Z,29.23
2022-12-18T23:41:11.164Z,30.15
2022-12-18T23:43:38.527Z,31.65
2022-12-18T23:46:16.611Z,27.42
2022-12-18T23:48:42.939Z,29.40
2022-12-18T23:51:11.538Z,29.95
2022-12-18T23:53:37.980Z,36.72
2022-12-18T23:56:08.390Z,32.03
2022-12-18T23:58:35.819Z,29.75
